createdAt,value
2024-02-15T00:00:58.195Z,9.812
2024-02-15T00:03:57.810Z,9.687
2024-02-15T00:06:57.731Z,9.75
2024-02-15T00:09:56.957Z,9.687
2024-02-15T00:12:57.234Z,9.687
2024-02-15T00:15:57.241Z,9.625
2024-02-15T00:18:57.554Z,9.625
2024-02-15T00:21:57.124Z,9.687
2024-02-15T00:24:57.233Z,9.625
2024-02-15T00:27:57.440Z,9.625
2024-02-15T00:30:57.790Z,9.625
2024-02-15T00:33:57.979Z,9.75
2024-02-15T00:36:57.086Z,9.937
2024-02-15T00:39:58.038Z,9.75
2024-02-15T00:42:56.984Z,9.812
2024-02-15T00:45:57.326Z,9.875
2024-02-15T00:48:57.342Z,9.875
2024-02-15T00:51:56.866Z,9.812
2024-02-15T00:54:56.928Z,9.812
2024-02-15T00:57:57.796Z,9.875
2024-02-15T01:00:58.136Z,9.875
2024-02-15T01:03:58.039Z,9.937
2024-02-15T01:06:56.972Z,9.937
2024-02-15T01:09:57.921Z,10.0
2024-02-15T01:12:57.615Z,10.0
2024-02-15T01:15:57.566Z,9.937
2024-02-15T01:18:57.426Z,9.875
2024-02-15T01:21:57.260Z,9.875
2024-02-15T01:24:56.633Z,9.875
2024-02-15T01:27:57.636Z,9.875
2024-02-15T01:30:58.351Z,9.875
2024-02-15T01:33:57.497Z,9.937
2024-02-15T01:36:57.285Z,9.937
2024-02-15T01:39:57.420Z,9.937
2024-02-15T01:42:57.198Z,10.0
2024-02-15T01:45:57.262Z,10.0
2024-02-15T01:48:57.126Z,10.0
2024-02-15T01:51:57.621Z,10.0
2024-02-15T01:54:56.964Z,9.75
2024-02-15T01:57:57.956Z,9.75
2024-02-15T02:00:57.717Z,9.75
2024-02-15T02:03:57.165Z,9.812
2024-02-15T02:06:57.024Z,9.687
2024-02-15T02:09:57.004Z,9.625
2024-02-15T02:12:57.616Z,9.625
2024-02-15T02:15:57.751Z,9.625
2024-02-15T02:18:57.658Z,9.687
2024-02-15T02:21:57.558Z,9.687
2024-02-15T02:24:57.935Z,9.625
2024-02-15T02:27:57.146Z,9.625
2024-02-15T02:30:57.783Z,9.625
2024-02-15T02:33:57.536Z,9.625
2024-02-15T02:36:56.797Z,9.625
2024-02-15T02:39:57.231Z,9.625
2024-02-15T02:42:57.770Z,9.562
2024-02-15T02:45:57.516Z,9.562
2024-02-15T02:48:57.560Z,9.437
2024-02-15T02:51:57.218Z,9.187
2024-02-15T02:54:57.628Z,9.062
2024-02-15T02:57:57.995Z,8.937
2024-02-15T03:00:58.185Z,8.812
2024-02-15T03:03:57.582Z,8.812
2024-02-15T03:06:57.376Z,8.75
2024-02-15T03:09:57.452Z,8.812
2024-02-15T03:12:56.916Z,8.812
2024-02-15T03:15:57.891Z,8.812
2024-02-15T03:18:57.253Z,8.75
2024-02-15T03:21:57.161Z,8.687
2024-02-15T03:24:57.672Z,8.687
2024-02-15T03:27:57.826Z,8.75
2024-02-15T03:30:56.665Z,8.75
2024-02-15T03:33:57.788Z,8.75
2024-02-15T03:36:57.204Z,8.75
2024-02-15T03:39:57.418Z,8.75
2024-02-15T03:42:57.293Z,8.75
2024-02-15T03:45:57.302Z,8.75
2024-02-15T03:48:57.518Z,8.75
2024-02-15T03:51:57.348Z,8.937
2024-02-15T03:54:57.222Z,9.0
2024-02-15T03:57:57.232Z,9.0
2024-02-15T04:00:58.187Z,9.125
2024-02-15T04:03:57.502Z,9.125
2024-02-15T04:06:57.146Z,9.125
2024-02-15T04:09:57.625Z,9.187
2024-02-15T04:12:57.475Z,9.187
2024-02-15T04:15:57.059Z,9.125
2024-02-15T04:18:57.425Z,9.062
2024-02-15T04:21:57.480Z,9.062
2024-02-15T04:24:57.010Z,9.0
2024-02-15T04:27:58.067Z,9.0
2024-02-15T04:30:57.686Z,9.0
2024-02-15T04:33:56.933Z,8.937
2024-02-15T04:36:57.638Z,8.937
2024-02-15T04:39:57.466Z,8.937
2024-02-15T04:42:57.286Z,8.937
2024-02-15T04:45:57.964Z,8.937
2024-02-15T04:48:57.531Z,9.0
2024-02-15T04:51:57.069Z,9.0
2024-02-15T04:54:57.213Z,9.0
2024-02-15T04:57:57.701Z,9.062
2024-02-15T05:00:57.684Z,9.062
2024-02-15T05:03:57.349Z,9.125
2024-02-15T05:06:57.420Z,9.125
2024-02-15T05:09:57.660Z,9.187
2024-02-15T05:12:57.286Z,9.25
2024-02-15T05:15:57.419Z,9.187
2024-02-15T05:18:58.060Z,9.25
2024-02-15T05:21:58.043Z,9.25
2024-02-15T05:24:56.974Z,9.312
2024-02-15T05:27:57.895Z,9.375
2024-02-15T05:30:58.056Z,9.25
2024-02-15T05:33:57.441Z,9.25
2024-02-15T05:36:57.079Z,9.25
2024-02-15T05:39:57.838Z,9.25
2024-02-15T05:42:57.673Z,9.125
2024-02-15T05:45:57.631Z,9.25
2024-02-15T05:48:58.482Z,9.062
2024-02-15T05:51:57.984Z,8.937
2024-02-15T05:54:56.931Z,8.875
2024-02-15T05:57:56.883Z,8.937
2024-02-15T06:00:58.888Z,8.875
2024-02-15T06:03:57.510Z,8.812
2024-02-15T06:06:57.445Z,8.812
2024-02-15T06:09:57.498Z,8.75
2024-02-15T06:12:57.464Z,8.75
2024-02-15T06:15:58.339Z,8.75
2024-02-15T06:18:57.436Z,8.75
2024-02-15T06:21:57.566Z,8.75
2024-02-15T06:24:57.497Z,8.75
2024-02-15T06:27:57.346Z,8.75
2024-02-15T06:30:58.034Z,8.937
2024-02-15T06:33:57.574Z,9.0
2024-02-15T06:36:57.489Z,9.062
2024-02-15T06:39:58.131Z,9.062
2024-02-15T06:42:57.623Z,9.062
2024-02-15T06:46:00.521Z,9.25
2024-02-15T06:48:58.164Z,9.25
2024-02-15T06:51:58.307Z,9.375
2024-02-15T06:54:57.360Z,9.375
2024-02-15T06:57:57.688Z,9.375
2024-02-15T07:00:57.847Z,9.437
2024-02-15T07:03:59.657Z,9.437
2024-02-15T07:06:57.651Z,9.562
2024-02-15T07:09:57.578Z,9.687
2024-02-15T07:12:56.986Z,9.687
2024-02-15T07:15:57.740Z,9.875
2024-02-15T07:18:57.677Z,9.875
2024-02-15T07:21:57.036Z,9.875
2024-02-15T07:24:57.586Z,9.937
2024-02-15T07:27:58.415Z,10.062
2024-02-15T07:30:58.326Z,10.125
2024-02-15T07:33:57.150Z,10.062
2024-02-15T07:36:58.070Z,10.062
2024-02-15T07:39:57.279Z,10.125
2024-02-15T07:42:57.101Z,10.187
2024-02-15T07:45:58.223Z,10.187
2024-02-15T07:48:57.014Z,10.125
2024-02-15T07:51:57.109Z,10.125
2024-02-15T07:54:57.407Z,10.125
2024-02-15T07:57:57.902Z,10.25
2024-02-15T08:00:57.937Z,10.5
2024-02-15T08:03:57.453Z,10.625
2024-02-15T08:06:57.928Z,10.687
2024-02-15T08:09:59.340Z,10.687
2024-02-15T08:12:57.050Z,10.437
2024-02-15T08:15:57.671Z,10.5
2024-02-15T08:18:57.859Z,10.562
2024-02-15T08:21:57.489Z,10.75
2024-02-15T08:24:57.641Z,10.875
2024-02-15T08:27:57.443Z,11.375
2024-02-15T08:30:57.666Z,11.375
2024-02-15T08:33:56.742Z,11.687
2024-02-15T08:36:58.016Z,11.687
2024-02-15T08:39:57.283Z,12.062
2024-02-15T08:42:56.950Z,11.75
2024-02-15T08:45:57.345Z,11.937
2024-02-15T08:48:57.488Z,12.0
2024-02-15T08:51:57.211Z,12.125
2024-02-15T08:54:57.386Z,12.375
2024-02-15T08:57:56.721Z,12.375
2024-02-15T09:00:58.284Z,12.375
2024-02-15T09:03:58.046Z,12.562
2024-02-15T09:06:57.902Z,12.625
2024-02-15T09:09:57.053Z,13.187
2024-02-15T09:12:57.786Z,13.062
2024-02-15T09:15:57.232Z,13.125
2024-02-15T09:18:57.614Z,13.5
2024-02-15T09:21:57.062Z,13.125
2024-02-15T09:24:57.603Z,13.375
2024-02-15T09:27:57.210Z,13.25
2024-02-15T09:30:57.244Z,13.437
2024-02-15T09:33:57.907Z,13.437
2024-02-15T09:36:57.709Z,13.437
2024-02-15T09:39:57.863Z,13.5
2024-02-15T09:42:57.143Z,13.5
2024-02-15T09:45:58.399Z,13.375
2024-02-15T09:48:57.531Z,13.625
2024-02-15T09:51:57.686Z,13.625
2024-02-15T09:54:57.691Z,13.687
2024-02-15T09:57:57.383Z,13.062
2024-02-15T10:00:57.700Z,12.875
2024-02-15T10:03:57.380Z,12.75
2024-02-15T10:06:57.184Z,12.75
2024-02-15T10:10:00.426Z,13.187
2024-02-15T10:12:56.779Z,12.875
2024-02-15T10:15:57.408Z,13.125
2024-02-15T10:18:57.865Z,13.125
2024-02-15T10:21:57.276Z,13.187
2024-02-15T10:24:57.945Z,13.25
2024-02-15T10:27:57.485Z,13.187
2024-02-15T10:30:57.725Z,13.187
2024-02-15T10:33:58.375Z,13.187
2024-02-15T10:36:57.514Z,13.187
2024-02-15T10:39:58.183Z,13.562
2024-02-15T10:42:57.235Z,13.562
2024-02-15T10:45:57.633Z,13.875
2024-02-15T10:48:57.600Z,13.875
2024-02-15T10:51:57.150Z,13.75
2024-02-15T10:54:57.004Z,14.125
2024-02-15T10:57:56.815Z,14.25
2024-02-15T11:00:57.534Z,14.312
2024-02-15T11:04:25.218Z,14.187
2024-02-15T11:06:57.551Z,14.187
2024-02-15T11:09:57.501Z,14.187
2024-02-15T11:12:56.851Z,14.125
2024-02-15T11:15:57.371Z,14.187
2024-02-15T11:18:57.495Z,13.75
2024-02-15T11:21:57.543Z,13.937
2024-02-15T11:24:56.844Z,14.5
2024-02-15T11:27:58.013Z,13.937
2024-02-15T11:30:58.109Z,14.375
2024-02-15T11:33:57.163Z,14.375
2024-02-15T11:36:56.651Z,14.5
2024-02-15T11:39:57.320Z,15.062
2024-02-15T11:42:57.935Z,15.062
2024-02-15T11:45:57.646Z,15.437
2024-02-15T11:48:58.233Z,15.437
2024-02-15T11:51:56.957Z,14.312
2024-02-15T11:54:57.812Z,15.125
2024-02-15T11:57:56.832Z,14.562
2024-02-15T12:00:58.242Z,14.687
2024-02-15T12:04:04.191Z,14.875
2024-02-15T12:06:57.483Z,15.25
2024-02-15T12:09:58.083Z,15.125
2024-02-15T12:12:57.152Z,14.812
2024-02-15T12:15:59.466Z,14.5
2024-02-15T12:18:57.956Z,14.812
2024-02-15T12:21:57.405Z,14.812
2024-02-15T12:24:56.764Z,15.625
2024-02-15T12:27:57.654Z,14.75
2024-02-15T12:30:58.068Z,14.687
2024-02-15T12:33:57.662Z,14.75
2024-02-15T12:36:57.938Z,14.875
2024-02-15T12:39:57.933Z,15.25
2024-02-15T12:42:57.781Z,15.312
2024-02-15T12:45:57.750Z,14.312
2024-02-15T12:48:57.190Z,14.437
2024-02-15T12:51:57.657Z,14.687
2024-02-15T12:54:56.994Z,14.625
2024-02-15T12:57:57.192Z,14.125
2024-02-15T13:00:58.394Z,13.937
2024-02-15T13:03:56.870Z,13.625
2024-02-15T13:06:57.903Z,13.625
2024-02-15T13:09:57.362Z,13.625
2024-02-15T13:12:56.816Z,13.625
2024-02-15T13:15:57.329Z,14.5
2024-02-15T13:18:58.028Z,14.937
2024-02-15T13:21:57.945Z,14.625
2024-02-15T13:24:58.325Z,15.125
2024-02-15T13:27:57.646Z,15.125
2024-02-15T13:30:57.413Z,15.0
2024-02-15T13:33:57.535Z,14.5
2024-02-15T13:36:57.568Z,14.0
2024-02-15T13:39:57.284Z,13.812
2024-02-15T13:42:57.493Z,13.5
2024-02-15T13:45:57.205Z,13.5
2024-02-15T13:48:57.809Z,13.375
2024-02-15T13:51:57.638Z,13.375
2024-02-15T13:54:57.984Z,13.375
2024-02-15T13:57:57.610Z,13.5
2024-02-15T14:00:59.139Z,13.437
2024-02-15T14:03:57.719Z,13.375
2024-02-15T14:06:57.974Z,13.375
2024-02-15T14:10:02.385Z,13.312
2024-02-15T14:12:57.245Z,13.5
2024-02-15T14:15:57.711Z,13.375
2024-02-15T14:18:57.450Z,13.312
2024-02-15T14:21:57.181Z,13.25
2024-02-15T14:24:57.876Z,13.187
2024-02-15T14:27:57.548Z,13.187
2024-02-15T14:30:58.258Z,13.125
2024-02-15T14:33:57.214Z,13.187
2024-02-15T14:36:57.283Z,13.187
2024-02-15T14:39:57.563Z,13.312
2024-02-15T14:42:57.719Z,13.25
2024-02-15T14:45:57.970Z,13.187
2024-02-15T14:48:57.365Z,13.187
2024-02-15T14:51:57.804Z,13.187
2024-02-15T14:54:56.854Z,13.0
2024-02-15T14:58:04.032Z,12.812
2024-02-15T15:01:01.156Z,12.75
2024-02-15T15:03:57.320Z,12.812
2024-02-15T15:06:57.220Z,12.875
2024-02-15T15:09:57.386Z,12.875
2024-02-15T15:12:57.033Z,12.812
2024-02-15T15:15:57.376Z,12.812
2024-02-15T15:18:58.081Z,12.625
2024-02-15T15:21:57.833Z,12.687
2024-02-15T15:24:58.025Z,12.625
2024-02-15T15:27:57.411Z,12.625
2024-02-15T15:30:57.938Z,12.562
2024-02-15T15:33:58.183Z,12.562
2024-02-15T15:36:57.541Z,12.562
2024-02-15T15:39:57.365Z,12.375
2024-02-15T15:42:57.512Z,12.375
2024-02-15T15:45:57.385Z,12.312
2024-02-15T15:48:57.426Z,12.25
2024-02-15T15:51:57.349Z,12.187
2024-02-15T15:54:57.275Z,12.062
2024-02-15T15:57:57.759Z,12.062
2024-02-15T16:00:57.951Z,11.937
2024-02-15T16:03:57.176Z,11.812
2024-02-15T16:06:56.796Z,11.687
2024-02-15T16:09:57.419Z,11.687
2024-02-15T16:12:57.472Z,11.687
2024-02-15T16:15:58.354Z,11.437
2024-02-15T16:18:58.041Z,11.375
2024-02-15T16:21:57.263Z,11.375
2024-02-15T16:24:57.553Z,11.187
2024-02-15T16:27:57.935Z,11.125
2024-02-15T16:30:58.179Z,11.375
2024-02-15T16:33:58.091Z,11.437
2024-02-15T16:36:58.021Z,11.25
2024-02-15T16:39:57.803Z,11.187
2024-02-15T16:42:57.919Z,11.125
2024-02-15T16:45:58.102Z,11.062
2024-02-15T16:48:58.220Z,10.75
2024-02-15T16:51:57.797Z,10.75
2024-02-15T16:54:57.702Z,10.687
2024-02-15T16:57:57.673Z,10.562
2024-02-15T17:00:58.446Z,10.437
2024-02-15T17:03:57.228Z,10.312
2024-02-15T17:06:57.429Z,10.312
2024-02-15T17:09:58.774Z,10.125
2024-02-15T17:12:57.615Z,10.187
2024-02-15T17:15:57.901Z,9.937
2024-02-15T17:18:58.018Z,9.937
2024-02-15T17:21:57.569Z,9.875
2024-02-15T17:24:57.342Z,9.875
2024-02-15T17:27:58.039Z,10.312
2024-02-15T17:30:58.861Z,10.0
2024-02-15T17:33:58.037Z,10.0
2024-02-15T17:36:57.950Z,9.812
2024-02-15T17:39:58.350Z,9.75
2024-02-15T17:42:58.205Z,9.875
2024-02-15T17:45:58.739Z,9.687
2024-02-15T17:48:57.805Z,9.75
2024-02-15T17:51:57.796Z,9.875
2024-02-15T17:54:57.696Z,9.625
2024-02-15T17:57:58.437Z,9.625
2024-02-15T18:00:58.109Z,9.625
2024-02-15T18:03:56.810Z,9.625
2024-02-15T18:06:57.742Z,9.812
2024-02-15T18:09:57.696Z,9.812
2024-02-15T18:12:57.528Z,9.812
2024-02-15T18:15:57.289Z,9.812
2024-02-15T18:18:57.424Z,9.812
2024-02-15T18:21:58.203Z,9.75
2024-02-15T18:24:58.057Z,9.5
2024-02-15T18:27:57.683Z,9.687
2024-02-15T18:30:58.339Z,9.937
2024-02-15T18:33:57.971Z,10.0
2024-02-15T18:36:58.314Z,10.187
2024-02-15T18:40:01.062Z,10.187
2024-02-15T18:42:57.143Z,10.562
2024-02-15T18:45:57.602Z,10.312
2024-02-15T18:48:57.846Z,10.312
2024-02-15T18:51:57.721Z,10.312
2024-02-15T18:54:57.783Z,10.625
2024-02-15T18:57:57.745Z,10.875
2024-02-15T19:01:27.126Z,10.687
2024-02-15T19:03:57.905Z,10.687
2024-02-15T19:06:57.425Z,10.687
2024-02-15T19:09:58.438Z,10.812
2024-02-15T19:12:57.082Z,10.75
2024-02-15T19:15:57.699Z,10.75
2024-02-15T19:18:57.256Z,10.625
2024-02-15T19:21:57.446Z,10.625
2024-02-15T19:24:57.165Z,10.437
2024-02-15T19:27:57.186Z,10.375
2024-02-15T19:30:58.383Z,10.375
2024-02-15T19:33:57.773Z,10.5
2024-02-15T19:37:04.532Z,10.25
2024-02-15T19:39:57.335Z,10.312
2024-02-15T19:42:57.603Z,10.562
2024-02-15T19:45:57.537Z,10.5
2024-02-15T19:48:57.829Z,10.562
2024-02-15T19:51:57.057Z,10.375
2024-02-15T19:54:57.276Z,10.375
2024-02-15T19:57:57.996Z,10.25
2024-02-15T20:00:57.979Z,10.25
2024-02-15T20:03:58.113Z,10.0
2024-02-15T20:06:57.249Z,10.0
2024-02-15T20:09:57.393Z,9.812
2024-02-15T20:12:57.998Z,10.062
2024-02-15T20:15:57.359Z,10.312
2024-02-15T20:18:58.186Z,10.312
2024-02-15T20:21:57.699Z,10.5
2024-02-15T20:24:57.081Z,10.687
2024-02-15T20:27:57.655Z,10.687
2024-02-15T20:30:58.164Z,10.562
2024-02-15T20:33:57.152Z,10.562
2024-02-15T20:36:57.780Z,10.375
2024-02-15T20:39:57.951Z,10.625
2024-02-15T20:42:57.512Z,10.437
2024-02-15T20:45:57.825Z,10.375
2024-02-15T20:48:57.193Z,10.437
2024-02-15T20:51:57.441Z,10.437
2024-02-15T20:54:58.235Z,10.437
2024-02-15T20:57:58.146Z,10.437
2024-02-15T21:00:57.888Z,10.437
2024-02-15T21:03:57.793Z,10.437
2024-02-15T21:06:57.870Z,10.5
2024-02-15T21:09:58.312Z,10.5
2024-02-15T21:12:57.739Z,10.25
2024-02-15T21:15:57.296Z,10.25
2024-02-15T21:18:57.887Z,10.375
2024-02-15T21:21:57.404Z,10.5
2024-02-15T21:24:57.748Z,10.25
2024-02-15T21:27:57.566Z,10.375
2024-02-15T21:30:57.841Z,10.125
2024-02-15T21:33:58.054Z,10.062
2024-02-15T21:36:57.557Z,10.0
2024-02-15T21:39:57.969Z,10.062
2024-02-15T21:42:57.509Z,9.875
2024-02-15T21:45:57.630Z,9.625
2024-02-15T21:48:57.310Z,9.687
2024-02-15T21:51:58.200Z,9.687
2024-02-15T21:54:57.298Z,10.0
2024-02-15T21:57:57.711Z,9.875
2024-02-15T22:00:58.466Z,9.812
2024-02-15T22:03:57.189Z,9.375
2024-02-15T22:06:58.176Z,9.562
2024-02-15T22:09:57.543Z,9.687
2024-02-15T22:12:57.757Z,9.5
2024-02-15T22:15:57.339Z,9.812
2024-02-15T22:18:57.291Z,9.687
2024-02-15T22:21:57.614Z,9.687
2024-02-15T22:24:57.078Z,9.687
2024-02-15T22:27:57.704Z,9.875
2024-02-15T22:30:57.902Z,9.625
2024-02-15T22:33:57.659Z,9.75
2024-02-15T22:36:57.070Z,9.875
2024-02-15T22:39:58.315Z,9.75
2024-02-15T22:42:57.529Z,9.625
2024-02-15T22:45:58.331Z,9.625
2024-02-15T22:48:57.647Z,9.25
2024-02-15T22:51:57.031Z,9.25
2024-02-15T22:54:56.759Z,9.187
2024-02-15T22:57:57.587Z,9.062
2024-02-15T23:00:58.397Z,9.25
2024-02-15T23:03:57.338Z,9.25
2024-02-15T23:06:57.617Z,8.875
2024-02-15T23:09:56.838Z,8.812
2024-02-15T23:12:57.336Z,9.062
2024-02-15T23:15:57.499Z,9.062
2024-02-15T23:18:57.639Z,9.062
2024-02-15T23:21:58.112Z,8.687
2024-02-15T23:24:57.001Z,8.812
2024-02-15T23:27:57.205Z,8.812
2024-02-15T23:30:57.042Z,9.0
2024-02-15T23:33:57.326Z,9.062
2024-02-15T23:36:57.497Z,9.062
2024-02-15T23:39:56.887Z,9.312
2024-02-15T23:42:57.624Z,9.312
2024-02-15T23:45:57.998Z,9.312
2024-02-15T23:48:57.054Z,9.437
2024-02-15T23:51:57.430Z,9.437
2024-02-15T23:54:57.459Z,9.625
2024-02-15T23:57:57.547Z,9.562
